AAL312 KRDU-KSYR
Flight info
| Callsign | AAL312 |
|---|---|
| Flight time | 1h 21m |
| Altitude | 37000 |
| Route | OXFRD5 CARML LDN PSB J59 SYR |
| Aircraft | B738/M-SDE2E3FGHIRWXY/LB1 |
Departure
| Time | 2026-04-30 00:52 |
|---|---|
| Airport | Raleigh-Durham International Airport (KRDU) |
Arrival
| Time | 2026-04-30 02:13 |
|---|---|
| Airport | Syracuse Hancock International Airport (KSYR) |
| Time | Latitude | Longitude | Altitude | Speed | Heading |
|---|---|---|---|---|---|
| 2026-04-30 00:10 | 35.87918 | -78.79065 | 391 ft | 0 kts | 302° |
| 2026-04-30 00:28 | 35.87911 | -78.79051 | 391 ft | 4 kts | 317° |
| 2026-04-30 00:28 | 35.87890 | -78.79039 | 391 ft | 4 kts | 14° |
| 2026-04-30 00:29 | 35.87873 | -78.79050 | 391 ft | 1 kts | 45° |
| 2026-04-30 00:29 | 35.87870 | -78.79053 | 391 ft | 0 kts | 45° |
| 2026-04-30 00:43 | 35.87871 | -78.79053 | 391 ft | 0 kts | 45° |
| 2026-04-30 00:43 | 35.87891 | -78.79028 | 391 ft | 8 kts | 45° |
| 2026-04-30 00:43 | 35.87953 | -78.78970 | 391 ft | 8 kts | 31° |
| 2026-04-30 00:43 | 35.88007 | -78.78965 | 391 ft | 8 kts | 329° |
| 2026-04-30 00:44 | 35.88047 | -78.79011 | 391 ft | 7 kts | 315° |
| 2026-04-30 00:44 | 35.88084 | -78.79055 | 391 ft | 8 kts | 322° |
| 2026-04-30 00:44 | 35.88119 | -78.79062 | 391 ft | 9 kts | 17° |
| 2026-04-30 00:44 | 35.88168 | -78.79006 | 390 ft | 11 kts | 44° |
| 2026-04-30 00:45 | 35.88224 | -78.78937 | 390 ft | 8 kts | 46° |
| 2026-04-30 00:45 | 35.88267 | -78.78884 | 390 ft | 7 kts | 45° |
| 2026-04-30 00:45 | 35.88297 | -78.78846 | 391 ft | 10 kts | 45° |
| 2026-04-30 00:45 | 35.88337 | -78.78797 | 390 ft | 8 kts | 45° |
| 2026-04-30 00:46 | 35.88375 | -78.78751 | 390 ft | 8 kts | 45° |
| 2026-04-30 00:46 | 35.88416 | -78.78701 | 391 ft | 8 kts | 45° |
| 2026-04-30 00:46 | 35.88455 | -78.78652 | 391 ft | 8 kts | 45° |
| 2026-04-30 00:46 | 35.88496 | -78.78601 | 391 ft | 8 kts | 45° |
| 2026-04-30 00:47 | 35.88533 | -78.78555 | 391 ft | 7 kts | 45° |
| 2026-04-30 00:47 | 35.88576 | -78.78502 | 391 ft | 11 kts | 44° |
| 2026-04-30 00:47 | 35.88631 | -78.78435 | 391 ft | 12 kts | 45° |
| 2026-04-30 00:47 | 35.88696 | -78.78354 | 391 ft | 14 kts | 45° |
| 2026-04-30 00:48 | 35.88764 | -78.78271 | 391 ft | 14 kts | 45° |
| 2026-04-30 00:48 | 35.88836 | -78.78182 | 391 ft | 16 kts | 45° |
| 2026-04-30 00:48 | 35.88911 | -78.78089 | 391 ft | 15 kts | 45° |
| 2026-04-30 00:48 | 35.88975 | -78.77993 | 390 ft | 14 kts | 64° |
| 2026-04-30 00:49 | 35.89011 | -78.77888 | 391 ft | 13 kts | 54° |
| 2026-04-30 00:49 | 35.89072 | -78.77812 | 391 ft | 13 kts | 45° |
| 2026-04-30 00:49 | 35.89139 | -78.77729 | 391 ft | 15 kts | 45° |
| 2026-04-30 00:49 | 35.89209 | -78.77649 | 391 ft | 11 kts | 25° |
| 2026-04-30 00:50 | 35.89269 | -78.77687 | 391 ft | 10 kts | 316° |
| 2026-04-30 00:50 | 35.89295 | -78.77720 | 391 ft | 2 kts | 314° |
| 2026-04-30 00:50 | 35.89297 | -78.77723 | 391 ft | 0 kts | 314° |
| 2026-04-30 00:50 | 35.89323 | -78.77755 | 391 ft | 10 kts | 315° |
| 2026-04-30 00:51 | 35.89345 | -78.77861 | 391 ft | 23 kts | 229° |
| 2026-04-30 00:51 | 35.89082 | -78.78176 | 390 ft | 87 kts | 225° |
| 2026-04-30 00:51 | 35.88507 | -78.78887 | 390 ft | 145 kts | 225° |
| 2026-04-30 00:51 | 35.87726 | -78.79862 | 739 ft | 163 kts | 225° |
| 2026-04-30 00:52 | 35.86934 | -78.80880 | 1372 ft | 171 kts | 233° |
| 2026-04-30 00:52 | 35.86109 | -78.82030 | 1831 ft | 186 kts | 211° |
| 2026-04-30 00:52 | 35.84842 | -78.82362 | 2436 ft | 195 kts | 176° |
| 2026-04-30 00:52 | 35.83530 | -78.81798 | 2950 ft | 205 kts | 150° |
| 2026-04-30 00:53 | 35.82560 | -78.80458 | 3399 ft | 220 kts | 118° |
| 2026-04-30 00:53 | 35.82278 | -78.78537 | 3678 ft | 239 kts | 85° |
| 2026-04-30 00:53 | 35.82759 | -78.76572 | 4165 ft | 245 kts | 59° |
| 2026-04-30 00:53 | 35.83887 | -78.74927 | 4228 ft | 271 kts | 35° |
| 2026-04-30 00:54 | 35.85612 | -78.73944 | 4707 ft | 275 kts | 8° |
| 2026-04-30 00:54 | 35.87497 | -78.73582 | 5443 ft | 274 kts | 3° |
| 2026-04-30 00:54 | 35.89369 | -78.73160 | 6281 ft | 273 kts | 6° |
| 2026-04-30 00:54 | 35.91234 | -78.72669 | 7002 ft | 276 kts | 6° |
| 2026-04-30 00:55 | 35.93133 | -78.72163 | 7712 ft | 280 kts | 6° |
| 2026-04-30 00:55 | 35.95041 | -78.71658 | 8487 ft | 282 kts | 5° |
| 2026-04-30 00:55 | 35.98922 | -78.70645 | 9994 ft | 289 kts | 5° |
| 2026-04-30 00:56 | 36.00928 | -78.70129 | 10436 ft | 305 kts | 5° |
| 2026-04-30 00:56 | 36.03091 | -78.69581 | 10608 ft | 329 kts | 5° |
| 2026-04-30 00:56 | 36.05396 | -78.68994 | 10956 ft | 344 kts | 6° |
| 2026-04-30 00:56 | 36.07763 | -78.68386 | 11584 ft | 349 kts | 6° |
| 2026-04-30 00:57 | 36.10122 | -78.67773 | 12319 ft | 352 kts | 6° |
| 2026-04-30 00:57 | 36.12537 | -78.67145 | 13002 ft | 356 kts | 6° |
| 2026-04-30 00:57 | 36.14981 | -78.66512 | 13679 ft | 362 kts | 6° |
| 2026-04-30 00:57 | 36.17460 | -78.65872 | 14335 ft | 365 kts | 6° |
| 2026-04-30 00:58 | 36.20004 | -78.65215 | 15066 ft | 367 kts | 6° |
| 2026-04-30 00:58 | 36.22472 | -78.64578 | 15764 ft | 370 kts | 6° |
| 2026-04-30 00:58 | 36.25006 | -78.63924 | 16477 ft | 373 kts | 6° |
| 2026-04-30 00:58 | 36.27562 | -78.63264 | 17153 ft | 377 kts | 6° |
| 2026-04-30 00:59 | 36.30142 | -78.62598 | 17823 ft | 380 kts | 6° |
| 2026-04-30 00:59 | 36.32741 | -78.61926 | 18453 ft | 384 kts | 6° |
| 2026-04-30 00:59 | 36.35374 | -78.61246 | 18998 ft | 388 kts | 6° |
| 2026-04-30 00:59 | 36.38023 | -78.60425 | 19541 ft | 395 kts | 9° |
| 2026-04-30 01:00 | 36.40677 | -78.59453 | 20082 ft | 400 kts | 10° |
| 2026-04-30 01:00 | 36.43356 | -78.58446 | 20635 ft | 404 kts | 10° |
| 2026-04-30 01:00 | 36.46030 | -78.57465 | 21189 ft | 407 kts | 9° |
| 2026-04-30 01:00 | 36.48762 | -78.56483 | 21732 ft | 410 kts | 9° |
| 2026-04-30 01:01 | 36.51527 | -78.55496 | 22243 ft | 415 kts | 9° |
| 2026-04-30 01:01 | 36.54317 | -78.54500 | 22734 ft | 419 kts | 9° |
| 2026-04-30 01:01 | 36.57131 | -78.53493 | 23235 ft | 423 kts | 9° |
| 2026-04-30 01:01 | 36.59966 | -78.52476 | 23683 ft | 426 kts | 9° |
| 2026-04-30 01:02 | 36.62828 | -78.51446 | 24114 ft | 429 kts | 9° |
| 2026-04-30 01:02 | 36.65704 | -78.50410 | 24546 ft | 432 kts | 9° |
| 2026-04-30 01:02 | 36.68598 | -78.49367 | 24999 ft | 435 kts | 8° |
| 2026-04-30 01:02 | 36.71520 | -78.48314 | 25386 ft | 438 kts | 8° |
| 2026-04-30 01:03 | 36.74454 | -78.47211 | 25770 ft | 445 kts | 13° |
| 2026-04-30 01:03 | 36.77211 | -78.45383 | 26134 ft | 462 kts | 25° |
| 2026-04-30 01:03 | 36.79899 | -78.43170 | 26547 ft | 465 kts | 26° |
| 2026-04-30 01:03 | 36.82594 | -78.40904 | 26899 ft | 469 kts | 26° |
| 2026-04-30 01:04 | 36.85312 | -78.38624 | 27238 ft | 472 kts | 26° |
| 2026-04-30 01:04 | 36.88062 | -78.36340 | 27582 ft | 475 kts | 26° |
| 2026-04-30 01:04 | 36.90831 | -78.34062 | 27962 ft | 478 kts | 25° |
| 2026-04-30 01:04 | 36.93635 | -78.31773 | 28163 ft | 484 kts | 25° |
| 2026-04-30 01:05 | 36.96467 | -78.29469 | 28471 ft | 487 kts | 25° |
| 2026-04-30 01:05 | 36.99314 | -78.27151 | 28845 ft | 489 kts | 25° |
| 2026-04-30 01:05 | 37.02169 | -78.24824 | 29195 ft | 491 kts | 25° |
| 2026-04-30 01:05 | 37.05037 | -78.22485 | 29499 ft | 494 kts | 25° |
| 2026-04-30 01:06 | 37.07932 | -78.20121 | 29789 ft | 497 kts | 25° |
| 2026-04-30 01:06 | 37.10838 | -78.17745 | 30063 ft | 499 kts | 25° |
| 2026-04-30 01:06 | 37.13757 | -78.15355 | 30358 ft | 502 kts | 25° |
| 2026-04-30 01:06 | 37.16651 | -78.12984 | 30600 ft | 504 kts | 25° |
| 2026-04-30 01:07 | 37.19587 | -78.10573 | 30938 ft | 504 kts | 25° |
| 2026-04-30 01:07 | 37.22517 | -78.08165 | 31361 ft | 502 kts | 25° |
| 2026-04-30 01:07 | 37.25429 | -78.05768 | 31774 ft | 500 kts | 25° |
| 2026-04-30 01:07 | 37.28337 | -78.03377 | 32129 ft | 499 kts | 25° |
| 2026-04-30 01:08 | 37.31242 | -78.00988 | 32452 ft | 499 kts | 25° |
| 2026-04-30 01:08 | 37.34202 | -77.98759 | 32811 ft | 487 kts | 13° |
| 2026-04-30 01:08 | 37.37360 | -77.97577 | 33089 ft | 464 kts | 358° |
| 2026-04-30 01:08 | 37.40503 | -77.97403 | 33437 ft | 442 kts | 344° |
| 2026-04-30 01:09 | 37.43532 | -77.97840 | 33817 ft | 436 kts | 341° |
| 2026-04-30 01:09 | 37.46536 | -77.98347 | 34104 ft | 435 kts | 341° |
| 2026-04-30 01:09 | 37.49543 | -77.98871 | 34355 ft | 435 kts | 341° |
| 2026-04-30 01:09 | 37.52541 | -77.99386 | 34627 ft | 435 kts | 341° |
| 2026-04-30 01:10 | 37.55543 | -77.99886 | 34909 ft | 435 kts | 341° |
| 2026-04-30 01:10 | 37.58541 | -78.00373 | 35244 ft | 434 kts | 341° |
| 2026-04-30 01:10 | 37.61505 | -78.00846 | 35468 ft | 435 kts | 342° |
| 2026-04-30 01:10 | 37.64510 | -78.01321 | 35717 ft | 435 kts | 342° |
| 2026-04-30 01:11 | 37.67507 | -78.01791 | 35974 ft | 434 kts | 342° |
| 2026-04-30 01:11 | 37.70507 | -78.02262 | 36203 ft | 434 kts | 342° |
| 2026-04-30 01:11 | 37.73509 | -78.02733 | 36445 ft | 434 kts | 342° |
| 2026-04-30 01:11 | 37.76515 | -78.03204 | 36703 ft | 433 kts | 342° |
| 2026-04-30 01:12 | 37.79506 | -78.03675 | 36855 ft | 435 kts | 342° |
| 2026-04-30 01:12 | 37.82530 | -78.04155 | 36846 ft | 438 kts | 342° |
| 2026-04-30 01:12 | 37.88575 | -78.05108 | 36843 ft | 436 kts | 342° |
| 2026-04-30 01:13 | 37.94522 | -78.06039 | 36849 ft | 431 kts | 342° |
| 2026-04-30 01:13 | 38.00470 | -78.06980 | 36860 ft | 429 kts | 342° |
| 2026-04-30 01:14 | 38.06089 | -78.07873 | 36892 ft | 429 kts | 342° |
| 2026-04-30 01:14 | 38.12019 | -78.08818 | 36864 ft | 429 kts | 342° |
| 2026-04-30 01:15 | 38.17954 | -78.09763 | 36863 ft | 430 kts | 342° |
| 2026-04-30 01:15 | 38.23913 | -78.10714 | 36847 ft | 432 kts | 342° |
| 2026-04-30 01:16 | 38.29865 | -78.11664 | 36892 ft | 434 kts | 342° |
| 2026-04-30 01:16 | 38.35881 | -78.12627 | 36865 ft | 437 kts | 342° |
| 2026-04-30 01:17 | 38.41929 | -78.13594 | 36858 ft | 438 kts | 342° |
| 2026-04-30 01:17 | 38.47989 | -78.14565 | 36860 ft | 439 kts | 342° |
| 2026-04-30 01:18 | 38.54060 | -78.15539 | 36864 ft | 440 kts | 342° |
| 2026-04-30 01:18 | 38.59879 | -78.16475 | 36860 ft | 441 kts | 342° |
| 2026-04-30 01:19 | 38.65977 | -78.17458 | 36849 ft | 442 kts | 342° |
| 2026-04-30 01:19 | 38.72082 | -78.18443 | 36834 ft | 441 kts | 342° |
| 2026-04-30 01:20 | 38.78130 | -78.19422 | 36834 ft | 441 kts | 343° |
| 2026-04-30 01:20 | 38.84224 | -78.20401 | 36829 ft | 443 kts | 345° |
| 2026-04-30 01:21 | 38.87336 | -78.20543 | 36829 ft | 454 kts | 353° |
| 2026-04-30 01:21 | 38.90504 | -78.20258 | 36841 ft | 456 kts | 355° |
| 2026-04-30 01:21 | 38.96838 | -78.19544 | 36829 ft | 457 kts | 355° |
| 2026-04-30 01:22 | 39.03171 | -78.18836 | 36858 ft | 457 kts | 355° |
| 2026-04-30 01:22 | 39.09504 | -78.18173 | 36856 ft | 456 kts | 355° |
| 2026-04-30 01:23 | 39.15843 | -78.17531 | 36854 ft | 456 kts | 355° |
| 2026-04-30 01:23 | 39.22135 | -78.16897 | 36879 ft | 456 kts | 355° |
| 2026-04-30 01:24 | 39.28481 | -78.16256 | 36859 ft | 457 kts | 355° |
| 2026-04-30 01:24 | 39.34832 | -78.15611 | 36856 ft | 458 kts | 355° |
| 2026-04-30 01:25 | 39.41207 | -78.14963 | 36840 ft | 459 kts | 355° |
| 2026-04-30 01:25 | 39.47579 | -78.14313 | 36847 ft | 460 kts | 356° |
| 2026-04-30 01:26 | 39.53963 | -78.13661 | 36855 ft | 460 kts | 356° |
| 2026-04-30 01:26 | 39.60354 | -78.13008 | 36829 ft | 461 kts | 356° |
| 2026-04-30 01:27 | 39.66712 | -78.12354 | 36858 ft | 462 kts | 356° |
| 2026-04-30 01:27 | 39.73131 | -78.11695 | 36852 ft | 463 kts | 356° |
| 2026-04-30 01:28 | 39.79558 | -78.11034 | 36843 ft | 463 kts | 356° |
| 2026-04-30 01:28 | 39.85989 | -78.10371 | 36843 ft | 463 kts | 357° |
| 2026-04-30 01:29 | 39.92422 | -78.09707 | 36851 ft | 464 kts | 357° |
| 2026-04-30 01:29 | 39.98865 | -78.09040 | 36847 ft | 464 kts | 357° |
| 2026-04-30 01:30 | 40.04213 | -78.08485 | 36839 ft | 464 kts | 357° |
| 2026-04-30 01:30 | 40.10667 | -78.07815 | 36830 ft | 464 kts | 357° |
| 2026-04-30 01:31 | 40.17109 | -78.07145 | 36845 ft | 464 kts | 357° |
| 2026-04-30 01:31 | 40.23556 | -78.06473 | 36832 ft | 464 kts | 357° |
| 2026-04-30 01:32 | 40.29960 | -78.05804 | 36867 ft | 464 kts | 358° |
| 2026-04-30 01:32 | 40.36406 | -78.05130 | 36842 ft | 465 kts | 358° |
| 2026-04-30 01:33 | 40.42864 | -78.04453 | 36835 ft | 465 kts | 358° |
| 2026-04-30 01:33 | 40.49315 | -78.03775 | 36831 ft | 465 kts | 358° |
| 2026-04-30 01:34 | 40.55733 | -78.03099 | 36841 ft | 466 kts | 358° |
| 2026-04-30 01:34 | 40.62202 | -78.02418 | 36827 ft | 466 kts | 358° |
| 2026-04-30 01:35 | 40.68675 | -78.01734 | 36832 ft | 466 kts | 358° |
| 2026-04-30 01:35 | 40.75147 | -78.01049 | 36830 ft | 467 kts | 358° |
| 2026-04-30 01:36 | 40.81664 | -78.00359 | 36843 ft | 473 kts | 359° |
| 2026-04-30 01:36 | 40.88292 | -77.99609 | 36834 ft | 483 kts | 3° |
| 2026-04-30 01:37 | 40.94827 | -77.97002 | 36845 ft | 499 kts | 22° |
| 2026-04-30 01:37 | 41.00844 | -77.92437 | 36823 ft | 503 kts | 27° |
| 2026-04-30 01:38 | 41.06844 | -77.87652 | 36815 ft | 503 kts | 27° |
| 2026-04-30 01:38 | 41.12880 | -77.82936 | 36816 ft | 503 kts | 26° |
| 2026-04-30 01:39 | 41.15917 | -77.80591 | 36478 ft | 508 kts | 26° |
| 2026-04-30 01:39 | 41.18970 | -77.78237 | 35977 ft | 504 kts | 27° |
| 2026-04-30 01:39 | 41.22001 | -77.75896 | 35232 ft | 504 kts | 27° |
| 2026-04-30 01:39 | 41.25015 | -77.73564 | 34783 ft | 499 kts | 27° |
| 2026-04-30 01:40 | 41.28004 | -77.71247 | 34312 ft | 495 kts | 27° |
| 2026-04-30 01:40 | 41.30927 | -77.68978 | 33844 ft | 491 kts | 27° |
| 2026-04-30 01:40 | 41.33870 | -77.66692 | 33308 ft | 487 kts | 28° |
| 2026-04-30 01:40 | 41.36781 | -77.64428 | 32800 ft | 483 kts | 28° |
| 2026-04-30 01:41 | 41.39667 | -77.62183 | 32368 ft | 477 kts | 29° |
| 2026-04-30 01:41 | 41.42517 | -77.59966 | 31919 ft | 472 kts | 29° |
| 2026-04-30 01:41 | 41.45340 | -77.57767 | 31452 ft | 468 kts | 30° |
| 2026-04-30 01:41 | 41.48140 | -77.55585 | 31013 ft | 464 kts | 30° |
| 2026-04-30 01:42 | 41.50915 | -77.53423 | 30569 ft | 460 kts | 30° |
| 2026-04-30 01:42 | 41.53672 | -77.51272 | 30154 ft | 456 kts | 31° |
| 2026-04-30 01:42 | 41.56403 | -77.49138 | 29679 ft | 454 kts | 31° |
| 2026-04-30 01:42 | 41.59116 | -77.47015 | 29168 ft | 450 kts | 31° |
| 2026-04-30 01:43 | 41.61805 | -77.44907 | 28683 ft | 446 kts | 31° |
| 2026-04-30 01:43 | 41.64470 | -77.42820 | 28233 ft | 442 kts | 31° |
| 2026-04-30 01:43 | 41.67114 | -77.40746 | 27773 ft | 438 kts | 31° |
| 2026-04-30 01:43 | 41.69733 | -77.38686 | 27317 ft | 435 kts | 31° |
| 2026-04-30 01:44 | 41.72335 | -77.36638 | 26893 ft | 432 kts | 31° |
| 2026-04-30 01:44 | 41.74919 | -77.34603 | 26440 ft | 429 kts | 31° |
| 2026-04-30 01:44 | 41.77453 | -77.32606 | 26006 ft | 427 kts | 31° |
| 2026-04-30 01:44 | 41.80007 | -77.30593 | 25569 ft | 425 kts | 31° |
| 2026-04-30 01:45 | 41.82550 | -77.28583 | 25131 ft | 423 kts | 31° |
| 2026-04-30 01:45 | 41.85077 | -77.26585 | 24689 ft | 421 kts | 30° |
| 2026-04-30 01:45 | 41.87599 | -77.24592 | 24240 ft | 420 kts | 30° |
| 2026-04-30 01:45 | 41.90114 | -77.22603 | 23774 ft | 419 kts | 31° |
| 2026-04-30 01:46 | 41.92615 | -77.20623 | 23371 ft | 417 kts | 31° |
| 2026-04-30 01:46 | 41.95114 | -77.18642 | 22848 ft | 416 kts | 30° |
| 2026-04-30 01:46 | 41.97592 | -77.16674 | 22375 ft | 413 kts | 30° |
| 2026-04-30 01:46 | 42.00056 | -77.14716 | 21952 ft | 410 kts | 30° |
| 2026-04-30 01:47 | 42.02503 | -77.12770 | 21508 ft | 407 kts | 30° |
| 2026-04-30 01:47 | 42.04937 | -77.10832 | 21082 ft | 405 kts | 30° |
| 2026-04-30 01:47 | 42.07353 | -77.08908 | 20670 ft | 403 kts | 30° |
| 2026-04-30 01:47 | 42.09755 | -77.06993 | 20239 ft | 400 kts | 30° |
| 2026-04-30 01:48 | 42.12146 | -77.05085 | 19818 ft | 399 kts | 30° |
| 2026-04-30 01:48 | 42.14529 | -77.03180 | 19386 ft | 397 kts | 29° |
| 2026-04-30 01:48 | 42.16904 | -77.01280 | 18954 ft | 397 kts | 29° |
| 2026-04-30 01:48 | 42.19245 | -76.99408 | 18533 ft | 396 kts | 29° |
| 2026-04-30 01:49 | 42.21644 | -76.97489 | 18098 ft | 395 kts | 29° |
| 2026-04-30 01:49 | 42.23974 | -76.95621 | 17573 ft | 395 kts | 29° |
| 2026-04-30 01:49 | 42.26336 | -76.93726 | 17103 ft | 393 kts | 28° |
| 2026-04-30 01:49 | 42.28668 | -76.91851 | 16836 ft | 386 kts | 29° |
| 2026-04-30 01:50 | 42.30968 | -76.90001 | 16430 ft | 383 kts | 28° |
| 2026-04-30 01:50 | 42.33242 | -76.88171 | 16044 ft | 377 kts | 28° |
| 2026-04-30 01:50 | 42.35480 | -76.86368 | 15621 ft | 369 kts | 28° |
| 2026-04-30 01:50 | 42.37660 | -76.84613 | 15261 ft | 362 kts | 28° |
| 2026-04-30 01:51 | 42.39824 | -76.82866 | 14889 ft | 361 kts | 28° |
| 2026-04-30 01:51 | 42.41979 | -76.81126 | 14510 ft | 359 kts | 27° |
| 2026-04-30 01:51 | 42.44094 | -76.79418 | 14142 ft | 358 kts | 27° |
| 2026-04-30 01:51 | 42.46229 | -76.77691 | 13770 ft | 357 kts | 28° |
| 2026-04-30 01:52 | 42.48356 | -76.75971 | 13347 ft | 355 kts | 28° |
| 2026-04-30 01:52 | 42.50472 | -76.74258 | 12944 ft | 353 kts | 28° |
| 2026-04-30 01:52 | 42.52571 | -76.72557 | 12549 ft | 350 kts | 28° |
| 2026-04-30 01:52 | 42.54653 | -76.70867 | 12174 ft | 347 kts | 28° |
| 2026-04-30 01:53 | 42.56716 | -76.69192 | 11797 ft | 344 kts | 28° |
| 2026-04-30 01:53 | 42.58762 | -76.67529 | 11427 ft | 341 kts | 28° |
| 2026-04-30 01:53 | 42.60789 | -76.65882 | 11064 ft | 338 kts | 28° |
| 2026-04-30 01:53 | 42.62797 | -76.64248 | 10712 ft | 335 kts | 29° |
| 2026-04-30 01:54 | 42.64789 | -76.62626 | 10457 ft | 329 kts | 29° |
| 2026-04-30 01:54 | 42.66720 | -76.61052 | 10336 ft | 319 kts | 29° |
| 2026-04-30 01:54 | 42.68595 | -76.59523 | 10215 ft | 309 kts | 29° |
| 2026-04-30 01:54 | 42.70408 | -76.58044 | 10093 ft | 300 kts | 29° |
| 2026-04-30 01:55 | 42.72171 | -76.56605 | 9959 ft | 292 kts | 29° |
| 2026-04-30 01:55 | 42.73911 | -76.55185 | 9672 ft | 290 kts | 29° |
| 2026-04-30 01:55 | 42.75633 | -76.53778 | 9359 ft | 288 kts | 29° |
| 2026-04-30 01:55 | 42.77346 | -76.52378 | 9078 ft | 286 kts | 29° |
| 2026-04-30 01:56 | 42.79046 | -76.50987 | 8789 ft | 284 kts | 29° |
| 2026-04-30 01:56 | 42.80736 | -76.49610 | 8472 ft | 284 kts | 29° |
| 2026-04-30 01:56 | 42.82409 | -76.48238 | 8176 ft | 284 kts | 30° |
| 2026-04-30 01:56 | 42.84112 | -76.46834 | 7886 ft | 286 kts | 30° |
| 2026-04-30 01:57 | 42.85825 | -76.45427 | 7575 ft | 288 kts | 30° |
| 2026-04-30 01:57 | 42.87541 | -76.44019 | 7291 ft | 288 kts | 30° |
| 2026-04-30 01:57 | 42.89259 | -76.42606 | 6966 ft | 289 kts | 30° |
| 2026-04-30 01:57 | 42.90984 | -76.41197 | 6625 ft | 290 kts | 29° |
| 2026-04-30 01:58 | 42.92720 | -76.39779 | 6291 ft | 291 kts | 30° |
| 2026-04-30 01:58 | 42.94450 | -76.38362 | 5988 ft | 289 kts | 30° |
| 2026-04-30 01:58 | 42.96174 | -76.36953 | 5698 ft | 287 kts | 28° |
| 2026-04-30 01:58 | 42.97894 | -76.35591 | 5417 ft | 285 kts | 30° |
| 2026-04-30 01:59 | 43.01229 | -76.32801 | 4925 ft | 280 kts | 30° |
| 2026-04-30 01:59 | 43.02887 | -76.31425 | 4704 ft | 276 kts | 30° |
| 2026-04-30 01:59 | 43.04503 | -76.30089 | 4587 ft | 269 kts | 30° |
| 2026-04-30 02:00 | 43.06164 | -76.28950 | 4452 ft | 266 kts | 12° |
| 2026-04-30 02:00 | 43.07970 | -76.28965 | 4385 ft | 258 kts | 340° |
| 2026-04-30 02:00 | 43.09516 | -76.30134 | 4301 ft | 255 kts | 313° |
| 2026-04-30 02:00 | 43.10510 | -76.32101 | 4143 ft | 253 kts | 287° |
| 2026-04-30 02:01 | 43.10797 | -76.34445 | 4052 ft | 248 kts | 270° |
| 2026-04-30 02:01 | 43.11198 | -76.36743 | 4007 ft | 251 kts | 291° |
| 2026-04-30 02:01 | 43.12200 | -76.38711 | 4006 ft | 253 kts | 306° |
| 2026-04-30 02:01 | 43.13368 | -76.40528 | 4001 ft | 255 kts | 308° |
| 2026-04-30 02:02 | 43.14553 | -76.42339 | 3987 ft | 256 kts | 308° |
| 2026-04-30 02:02 | 43.15747 | -76.44156 | 3930 ft | 256 kts | 308° |
| 2026-04-30 02:02 | 43.16952 | -76.45973 | 3810 ft | 259 kts | 308° |
| 2026-04-30 02:02 | 43.18166 | -76.47801 | 3672 ft | 259 kts | 308° |
| 2026-04-30 02:03 | 43.19382 | -76.49617 | 3544 ft | 255 kts | 308° |
| 2026-04-30 02:03 | 43.20419 | -76.51512 | 3363 ft | 244 kts | 288° |
| 2026-04-30 02:03 | 43.20533 | -76.53691 | 3144 ft | 228 kts | 250° |
| 2026-04-30 02:03 | 43.19650 | -76.55335 | 3017 ft | 210 kts | 209° |
| 2026-04-30 02:04 | 43.18270 | -76.55713 | 3010 ft | 201 kts | 178° |
| 2026-04-30 02:04 | 43.16884 | -76.55581 | 3021 ft | 197 kts | 178° |
| 2026-04-30 02:04 | 43.15551 | -76.55472 | 2992 ft | 187 kts | 179° |
| 2026-04-30 02:04 | 43.14263 | -76.55360 | 2998 ft | 184 kts | 178° |
| 2026-04-30 02:05 | 43.12973 | -76.55248 | 2993 ft | 186 kts | 178° |
| 2026-04-30 02:05 | 43.11684 | -76.55122 | 2977 ft | 186 kts | 178° |
| 2026-04-30 02:05 | 43.10405 | -76.54990 | 3005 ft | 184 kts | 178° |
| 2026-04-30 02:05 | 43.09125 | -76.54860 | 2998 ft | 185 kts | 178° |
| 2026-04-30 02:06 | 43.07840 | -76.54728 | 2992 ft | 186 kts | 178° |
| 2026-04-30 02:06 | 43.06548 | -76.54597 | 3001 ft | 186 kts | 178° |
| 2026-04-30 02:06 | 43.05286 | -76.54233 | 2990 ft | 190 kts | 151° |
| 2026-04-30 02:06 | 43.04519 | -76.52780 | 2998 ft | 198 kts | 104° |
| 2026-04-30 02:07 | 43.04757 | -76.50937 | 3008 ft | 203 kts | 60° |
| 2026-04-30 02:07 | 43.05547 | -76.49322 | 2990 ft | 210 kts | 58° |
| 2026-04-30 02:07 | 43.06380 | -76.47647 | 3021 ft | 216 kts | 58° |
| 2026-04-30 02:07 | 43.07223 | -76.45951 | 2999 ft | 214 kts | 58° |
| 2026-04-30 02:08 | 43.08055 | -76.44285 | 2996 ft | 212 kts | 58° |
| 2026-04-30 02:08 | 43.08887 | -76.42623 | 2985 ft | 210 kts | 58° |
| 2026-04-30 02:08 | 43.09284 | -76.41831 | 3008 ft | 210 kts | 58° |
| 2026-04-30 02:08 | 43.09889 | -76.40049 | 2993 ft | 204 kts | 88° |
| 2026-04-30 02:09 | 43.09955 | -76.38117 | 3003 ft | 204 kts | 91° |
| 2026-04-30 02:09 | 43.10055 | -76.36220 | 2992 ft | 194 kts | 92° |
| 2026-04-30 02:09 | 43.10130 | -76.34406 | 2982 ft | 189 kts | 93° |
| 2026-04-30 02:09 | 43.10188 | -76.32640 | 2992 ft | 188 kts | 93° |
| 2026-04-30 02:10 | 43.10242 | -76.30829 | 2992 ft | 190 kts | 93° |
| 2026-04-30 02:10 | 43.10297 | -76.29023 | 2797 ft | 194 kts | 94° |
| 2026-04-30 02:10 | 43.10355 | -76.27201 | 2532 ft | 187 kts | 94° |
| 2026-04-30 02:10 | 43.10411 | -76.25486 | 2323 ft | 172 kts | 94° |
| 2026-04-30 02:11 | 43.10460 | -76.23921 | 2074 ft | 159 kts | 94° |
| 2026-04-30 02:11 | 43.10505 | -76.22433 | 1868 ft | 154 kts | 93° |
| 2026-04-30 02:11 | 43.10552 | -76.20971 | 1670 ft | 153 kts | 93° |
| 2026-04-30 02:11 | 43.10595 | -76.19516 | 1454 ft | 153 kts | 92° |
| 2026-04-30 02:12 | 43.10646 | -76.18060 | 1264 ft | 152 kts | 90° |
| 2026-04-30 02:12 | 43.10698 | -76.16596 | 1035 ft | 155 kts | 89° |
| 2026-04-30 02:12 | 43.10733 | -76.15134 | 823 ft | 152 kts | 89° |
| 2026-04-30 02:12 | 43.10787 | -76.13705 | 629 ft | 150 kts | 86° |
| 2026-04-30 02:13 | 43.10834 | -76.12280 | 430 ft | 148 kts | 88° |
| 2026-04-30 02:13 | 43.10871 | -76.11056 | 421 ft | 101 kts | 87° |
| 2026-04-30 02:13 | 43.10893 | -76.10396 | 424 ft | 38 kts | 88° |
| 2026-04-30 02:13 | 43.10904 | -76.10051 | 416 ft | 35 kts | 87° |
| 2026-04-30 02:14 | 43.10936 | -76.09851 | 418 ft | 10 kts | 359° |
| 2026-04-30 02:14 | 43.10988 | -76.09916 | 423 ft | 10 kts | 313° |
| 2026-04-30 02:14 | 43.11013 | -76.09953 | 411 ft | 0 kts | 313° |
| 2026-04-30 02:15 | 43.11022 | -76.09965 | 417 ft | 6 kts | 313° |
| 2026-04-30 02:15 | 43.11029 | -76.09974 | 419 ft | 0 kts | 314° |
| 2026-04-30 02:16 | 43.11029 | -76.09980 | 420 ft | 3 kts | 286° |
| 2026-04-30 02:16 | 43.11028 | -76.10039 | 423 ft | 10 kts | 268° |
| 2026-04-30 02:16 | 43.11024 | -76.10167 | 423 ft | 15 kts | 266° |
| 2026-04-30 02:16 | 43.11018 | -76.10315 | 415 ft | 15 kts | 267° |
| 2026-04-30 02:17 | 43.11014 | -76.10455 | 420 ft | 14 kts | 267° |
| 2026-04-30 02:17 | 43.11009 | -76.10585 | 424 ft | 13 kts | 268° |
| 2026-04-30 02:17 | 43.11006 | -76.10705 | 424 ft | 12 kts | 268° |
| 2026-04-30 02:17 | 43.11002 | -76.10827 | 415 ft | 14 kts | 268° |
| 2026-04-30 02:18 | 43.10999 | -76.10924 | 424 ft | 17 kts | 268° |
| 2026-04-30 02:18 | 43.10994 | -76.11079 | 424 ft | 13 kts | 271° |
| 2026-04-30 02:18 | 43.11059 | -76.11144 | 418 ft | 12 kts | 355° |
| 2026-04-30 02:18 | 43.11120 | -76.11146 | 418 ft | 8 kts | 4° |
| 2026-04-30 02:19 | 43.11165 | -76.11118 | 420 ft | 7 kts | 46° |
| 2026-04-30 02:19 | 43.11185 | -76.11055 | 423 ft | 8 kts | 78° |
| 2026-04-30 02:19 | 43.11215 | -76.11003 | 416 ft | 7 kts | 5° |
| 2026-04-30 02:19 | 43.11245 | -76.11006 | 417 ft | 1 kts | 357° |
| 2026-04-30 02:20 | 43.11246 | -76.11006 | 417 ft | 0 kts | 357° |
| 2026-04-30 02:20 | 43.11251 | -76.11006 | 420 ft | 0 kts | 359° |
| 2026-04-30 02:21 | 43.11252 | -76.10945 | 417 ft | 0 kts | 356° |
| 2026-04-30 02:21 | 43.11254 | -76.11006 | 420 ft | 0 kts | 358° |